Time;durP1;ratioP1;P1;durP2;ratioP2;P2;SDS_P1;SDS_P2;PMS_P1;PMS_P2;Temp;Humidity;BMP_temperature;BMP_pressure;BME280_temperature;BME280_humidity;BME280_pressure;Samples;Min_cycle;Max_cycle;Signal;HPM_P1;HPM_P2
2021/12/01 00:01:01;;;;;;;9.55;8.23;;;10.50;99.90;;;;;;5054209;28;20159;-79
2021/12/01 00:03:27;;;;;;;9.27;8.02;;;10.50;99.90;;;;;;5053187;28;20060;-77
2021/12/01 00:05:53;;;;;;;9.75;8.75;;;10.50;99.90;;;;;;5054370;28;20059;-77
2021/12/01 00:08:19;;;;;;;13.02;8.57;;;10.50;99.90;;;;;;5054020;28;20530;-78
2021/12/01 00:10:46;;;;;;;9.75;8.60;;;10.50;99.90;;;;;;5053994;28;20028;-75
2021/12/01 00:13:15;;;;;;;8.93;8.18;;;10.70;99.90;;;;;;5053467;28;20178;-78
2021/12/01 00:15:42;;;;;;;12.43;8.00;;;10.50;99.90;;;;;;5054741;28;20021;-79
2021/12/01 00:18:09;;;;;;;9.05;8.18;;;10.60;99.90;;;;;;5054498;28;20029;-78
2021/12/01 00:20:35;;;;;;;11.50;8.10;;;10.60;99.90;;;;;;5054124;28;20049;-75
2021/12/01 00:23:02;;;;;;;7.28;6.07;;;10.60;99.90;;;;;;5055431;28;20116;-78
2021/12/01 00:25:29;;;;;;;12.35;7.10;;;10.60;99.90;;;;;;5053191;28;20029;-78
2021/12/01 00:27:55;;;;;;;10.68;6.50;;;10.60;99.90;;;;;;5053746;28;20388;-77
2021/12/01 00:30:22;;;;;;;6.20;5.57;;;10.60;99.90;;;;;;5053369;28;20029;-77
2021/12/01 00:32:56;;;;;;;6.53;5.13;;;10.70;99.90;;;;;;5053064;28;20119;-78
2021/12/01 00:35:23;;;;;;;5.25;4.75;;;10.60;99.90;;;;;;5053082;28;20401;-78
2021/12/01 00:37:50;;;;;;;5.75;4.65;;;10.60;99.90;;;;;;5053652;28;20025;-77
2021/12/01 00:40:15;;;;;;;4.40;4.07;;;10.60;99.90;;;;;;5052359;28;20448;-78
2021/12/01 00:42:42;;;;;;;14.23;5.57;;;10.60;99.90;;;;;;5052520;28;20033;-78
2021/12/01 00:45:13;;;;;;;9.98;4.22;;;10.70;99.90;;;;;;5052934;28;20047;-77
2021/12/01 00:47:57;;;;;;;4.95;4.47;;;10.70;99.90;;;;;;5053269;28;20032;-78
2021/12/01 00:50:26;;;;;;;8.88;4.70;;;10.60;99.90;;;;;;5053211;28;20070;-77
2021/12/01 00:52:54;;;;;;;13.15;4.75;;;10.70;99.90;;;;;;5052402;28;20060;-78
2021/12/01 00:55:20;;;;;;;4.30;3.75;;;10.70;99.90;;;;;;5053057;28;20033;-78
2021/12/01 00:57:46;;;;;;;4.05;3.40;;;10.70;99.90;;;;;;5053291;28;20094;-77
2021/12/01 01:00:13;;;;;;;7.10;3.28;;;10.70;99.90;;;;;;5052305;28;20036;-77
2021/12/01 01:02:39;;;;;;;3.85;1.98;;;10.70;99.90;;;;;;5053217;28;20059;-76
2021/12/01 01:05:06;;;;;;;1.95;1.75;;;10.70;99.90;;;;;;5052756;28;20028;-78
2021/12/01 01:07:31;;;;;;;3.72;2.22;;;10.70;99.90;;;;;;5051743;28;20029;-77
2021/12/01 01:10:04;;;;;;;1.85;1.75;;;10.70;99.90;;;;;;5052861;28;20116;-77
2021/12/01 01:18:08;;;;;;;5.82;2.40;;;10.70;99.90;;;;;;5052772;28;20031;-77
2021/12/01 01:20:35;;;;;;;3.40;2.03;;;10.70;99.90;;;;;;5051927;28;20036;-75
2021/12/01 01:23:01;;;;;;;5.20;2.13;;;10.70;99.90;;;;;;5052859;28;20029;-77
2021/12/01 01:25:27;;;;;;;4.65;2.78;;;10.70;99.90;;;;;;5052290;28;20025;-78
2021/12/01 01:27:52;;;;;;;7.32;3.20;;;10.70;99.90;;;;;;5051918;28;20028;-77
2021/12/01 01:30:18;;;;;;;3.13;2.28;;;10.70;99.90;;;;;;5052068;28;20465;-77
2021/12/01 01:32:44;;;;;;;5.80;2.53;;;10.70;99.90;;;;;;5052054;28;20021;-78
2021/12/01 01:35:09;;;;;;;2.03;1.92;;;10.70;99.90;;;;;;5051674;28;20098;-78
2021/12/01 01:37:35;;;;;;;4.03;1.98;;;10.70;99.90;;;;;;5038363;28;20075;-78
2021/12/01 01:40:00;;;;;;;2.95;1.75;;;10.70;99.90;;;;;;5052252;28;20560;-78
2021/12/01 01:42:26;;;;;;;2.60;2.10;;;10.70;99.90;;;;;;5051324;28;20035;-78
2021/12/01 01:44:51;;;;;;;2.45;1.75;;;10.70;99.90;;;;;;5052190;28;20048;-79
2021/12/01 01:47:18;;;;;;;5.13;2.78;;;10.60;99.90;;;;;;5051827;28;20492;-77
2021/12/01 01:49:55;;;;;;;6.07;3.22;;;10.50;99.90;;;;;;5051877;28;20035;-78
2021/12/01 01:52:21;;;;;;;8.63;3.28;;;10.50;99.90;;;;;;5051891;28;20431;-78
2021/12/01 01:54:46;;;;;;;5.88;2.30;;;10.50;99.90;;;;;;5051603;28;20086;-77
2021/12/01 01:57:12;;;;;;;4.75;2.38;;;10.50;99.90;;;;;;5050895;28;20013;-78
2021/12/01 01:59:38;;;;;;;4.57;2.40;;;10.50;99.90;;;;;;5051534;28;20041;-79
2021/12/01 02:02:04;;;;;;;4.97;2.47;;;10.50;99.90;;;;;;5051978;28;20031;-78
2021/12/01 02:04:33;;;;;;;6.63;2.35;;;10.50;99.90;;;;;;5050925;28;20021;-77
2021/12/01 02:06:59;;;;;;;4.20;2.58;;;10.40;99.90;;;;;;5052030;28;20091;-77
2021/12/01 02:09:25;;;;;;;2.65;2.20;;;10.40;99.90;;;;;;5050827;28;20060;-79
2021/12/01 02:11:52;;;;;;;4.60;2.15;;;10.40;99.90;;;;;;5051349;28;20051;-77
2021/12/01 02:14:18;;;;;;;2.95;2.00;;;10.40;99.90;;;;;;5051392;28;20112;-78
2021/12/01 02:16:45;;;;;;;2.58;1.27;;;10.40;99.90;;;;;;5050910;28;20671;-77
2021/12/01 02:19:11;;;;;;;2.50;2.00;;;10.30;99.90;;;;;;5051174;28;20050;-77
2021/12/01 02:21:36;;;;;;;1.20;1.10;;;10.30;99.90;;;;;;5051541;28;20021;-78
2021/12/01 02:24:06;;;;;;;1.60;1.50;;;10.30;99.90;;;;;;5050656;28;20064;-77
2021/12/01 02:26:34;;;;;;;2.45;1.50;;;10.30;99.90;;;;;;5051382;28;20100;-78
2021/12/01 02:29:03;;;;;;;1.80;1.08;;;10.30;99.90;;;;;;5051242;28;20060;-77
2021/12/01 02:31:33;;;;;;;1.67;1.05;;;10.30;99.90;;;;;;5050675;28;20115;-76
2021/12/01 02:33:59;;;;;;;1.92;1.30;;;10.30;99.90;;;;;;5052607;28;20405;-78
2021/12/01 02:36:26;;;;;;;3.40;1.30;;;10.20;99.90;;;;;;5051023;28;20090;-76
2021/12/01 02:38:51;;;;;;;1.50;1.40;;;10.20;99.90;;;;;;5050739;28;20028;-80
2021/12/01 02:41:29;;;;;;;1.13;1.02;;;10.20;99.90;;;;;;5051238;28;20037;-76
2021/12/01 02:43:55;;;;;;;1.67;1.30;;;10.20;99.90;;;;;;5051846;28;20029;-77
2021/12/01 02:46:21;;;;;;;2.72;1.23;;;10.20;99.90;;;;;;5050322;28;20032;-77
2021/12/01 02:48:46;;;;;;;1.30;1.20;;;10.20;99.90;;;;;;5051240;28;20049;-77
2021/12/01 02:51:12;;;;;;;6.90;0.95;;;10.10;99.90;;;;;;5050912;28;20072;-77
2021/12/01 02:53:39;;;;;;;1.13;1.10;;;10.10;99.90;;;;;;5050443;28;20491;-77
2021/12/01 02:56:06;;;;;;;1.58;1.33;;;10.10;99.90;;;;;;5051015;28;20035;-77
2021/12/01 02:58:38;;;;;;;1.27;1.23;;;10.10;99.90;;;;;;5050940;28;20017;-77
2021/12/01 03:01:05;;;;;;;1.75;1.50;;;10.10;99.90;;;;;;5051218;28;20068;-77
2021/12/01 03:03:32;;;;;;;2.35;2.10;;;10.10;99.90;;;;;;5052789;28;20481;-77
2021/12/01 03:05:58;;;;;;;5.85;2.38;;;10.10;99.90;;;;;;5054299;28;20051;-78
2021/12/01 03:08:24;;;;;;;4.93;2.50;;;10.10;99.90;;;;;;5056861;28;20041;-76
2021/12/01 03:10:52;;;;;;;5.30;2.60;;;10.10;99.90;;;;;;5057766;28;20037;-77
2021/12/01 03:13:20;;;;;;;5.90;2.45;;;10.10;99.90;;;;;;5056404;28;20523;-77
2021/12/01 03:15:46;;;;;;;2.92;2.60;;;10.10;99.90;;;;;;5059093;28;20036;-77
2021/12/01 03:18:14;;;;;;;3.97;2.85;;;10.10;99.90;;;;;;5058005;28;20032;-76
2021/12/01 03:20:40;;;;;;;3.15;2.63;;;9.80;99.90;;;;;;5057276;28;20045;-77
2021/12/01 03:23:06;;;;;;;5.00;3.15;;;10.00;99.90;;;;;;5057509;28;20469;-77
2021/12/01 03:25:33;;;;;;;11.07;3.97;;;10.10;99.90;;;;;;5057298;28;20020;-77
2021/12/01 03:27:58;;;;;;;5.85;4.10;;;10.00;99.90;;;;;;5055235;28;20112;-77
2021/12/01 03:30:24;;;;;;;6.72;4.60;;;10.00;99.90;;;;;;5052045;28;20127;-77
2021/12/01 03:32:51;;;;;;;8.20;5.45;;;10.00;99.90;;;;;;5057295;28;20021;-77
2021/12/01 03:35:16;;;;;;;7.10;4.85;;;10.00;99.90;;;;;;5056816;28;20021;-77
2021/12/01 03:37:44;;;;;;;6.32;5.65;;;10.00;99.90;;;;;;5057286;28;20025;-76
2021/12/01 03:40:11;;;;;;;5.63;4.82;;;10.00;99.90;;;;;;5057348;28;20033;-79
2021/12/01 03:42:37;;;;;;;5.15;4.65;;;10.00;99.90;;;;;;5056785;28;20092;-76
2021/12/01 03:45:05;;;;;;;5.22;4.60;;;10.00;99.90;;;;;;5057216;28;20025;-77
2021/12/01 03:47:30;;;;;;;6.88;4.65;;;10.00;99.90;;;;;;5056791;28;20037;-76
2021/12/01 03:49:56;;;;;;;5.53;4.60;;;10.00;99.90;;;;;;5056540;28;20064;-76
2021/12/01 03:52:23;;;;;;;7.22;4.43;;;9.90;99.90;;;;;;5056795;28;20615;-78
2021/12/01 03:54:50;;;;;;;6.25;5.05;;;10.00;99.90;;;;;;5057527;28;20405;-75
2021/12/01 03:57:16;;;;;;;3.42;3.13;;;9.90;99.90;;;;;;5056730;28;20029;-79
2021/12/01 03:59:42;;;;;;;6.35;4.85;;;10.00;99.90;;;;;;5057127;28;20035;-75
2021/12/01 04:02:08;;;;;;;4.53;4.07;;;10.00;99.90;;;;;;5056374;28;20029;-76
2021/12/01 04:04:33;;;;;;;8.15;3.90;;;9.90;99.90;;;;;;5056425;28;20029;-78
2021/12/01 04:06:59;;;;;;;5.47;3.47;;;9.90;99.90;;;;;;5057279;28;20490;-76
2021/12/01 04:09:26;;;;;;;3.15;2.92;;;9.90;99.90;;;;;;5055785;28;20103;-76
2021/12/01 04:11:51;;;;;;;3.65;3.20;;;9.90;99.90;;;;;;5056873;28;20361;-76
2021/12/01 04:14:17;;;;;;;3.22;2.92;;;9.90;99.90;;;;;;5056948;28;20048;-77
2021/12/01 04:16:43;;;;;;;3.10;2.85;;;9.90;99.90;;;;;;5054508;28;20032;-77
2021/12/01 04:19:09;;;;;;;4.60;2.90;;;9.80;99.90;;;;;;5053443;28;20029;-76
2021/12/01 04:21:35;;;;;;;6.88;3.35;;;9.80;99.90;;;;;;5053379;28;20416;-76
2021/12/01 04:24:01;;;;;;;7.78;3.35;;;9.80;99.90;;;;;;5053396;28;20021;-77
2021/12/01 04:26:31;;;;;;;3.65;3.35;;;9.80;99.90;;;;;;5053868;28;20036;-77
2021/12/01 04:28:57;;;;;;;3.22;2.92;;;9.80;99.90;;;;;;5053834;28;20029;-76
2021/12/01 04:31:22;;;;;;;3.72;3.30;;;9.80;99.90;;;;;;5052831;28;20103;-78
2021/12/01 04:33:48;;;;;;;4.78;3.85;;;9.70;99.90;;;;;;5053342;28;20465;-77
2021/12/01 04:36:16;;;;;;;6.90;3.42;;;9.80;99.90;;;;;;5054827;28;20051;-75
2021/12/01 04:38:42;;;;;;;3.50;2.50;;;9.80;99.90;;;;;;5052960;28;20028;-77
2021/12/01 04:41:09;;;;;;;4.75;3.60;;;9.80;99.90;;;;;;5055999;28;20021;-77
2021/12/01 04:43:37;;;;;;;5.30;3.75;;;9.70;99.90;;;;;;5054662;28;20032;-77
2021/12/01 04:46:04;;;;;;;4.18;3.88;;;9.70;99.90;;;;;;5057154;28;20044;-77
2021/12/01 04:48:30;;;;;;;4.18;3.63;;;9.70;99.90;;;;;;5057202;28;20074;-77
2021/12/01 04:50:56;;;;;;;4.30;3.90;;;10.80;99.90;;;;;;5053718;28;20025;-78
2021/12/01 04:53:23;;;;;;;6.07;3.75;;;9.60;99.90;;;;;;5052683;28;20442;-77
2021/12/01 04:55:49;;;;;;;6.90;4.45;;;9.60;99.90;;;;;;5053028;28;20028;-78
2021/12/01 04:58:14;;;;;;;4.60;4.20;;;9.60;99.90;;;;;;5052171;28;20020;-76
2021/12/01 05:00:40;;;;;;;4.32;3.83;;;9.60;99.90;;;;;;5052894;28;20037;-77
2021/12/01 05:03:06;;;;;;;4.45;4.05;;;9.60;99.90;;;;;;5053186;28;20062;-77
2021/12/01 05:05:31;;;;;;;5.65;4.45;;;9.60;99.90;;;;;;5052865;28;20029;-78
2021/12/01 05:07:57;;;;;;;4.63;4.22;;;9.60;99.90;;;;;;5053781;28;20032;-77
2021/12/01 05:10:23;;;;;;;4.88;4.47;;;9.50;99.90;;;;;;5052833;28;20412;-78
2021/12/01 05:12:49;;;;;;;5.03;3.92;;;9.60;99.90;;;;;;5052307;28;20024;-78
2021/12/01 05:15:15;;;;;;;6.05;4.70;;;9.50;99.90;;;;;;5052582;28;20048;-78
2021/12/01 05:17:41;;;;;;;5.22;3.47;;;9.50;99.90;;;;;;5052641;28;20047;-79
2021/12/01 05:20:08;;;;;;;5.03;4.53;;;9.60;99.90;;;;;;5051996;28;20534;-78
2021/12/01 05:22:34;;;;;;;5.20;4.80;;;9.60;99.90;;;;;;5052467;28;20107;-79
2021/12/01 05:25:00;;;;;;;5.60;4.63;;;9.60;99.90;;;;;;5052683;28;20116;-78
2021/12/01 05:27:26;;;;;;;6.50;5.20;;;9.50;99.90;;;;;;5051862;28;20051;-78
2021/12/01 05:29:52;;;;;;;4.80;4.18;;;9.50;99.90;;;;;;5051977;28;20530;-78
2021/12/01 05:32:18;;;;;;;6.70;4.78;;;9.50;99.90;;;;;;5052183;28;20022;-77
2021/12/01 05:34:43;;;;;;;5.28;4.88;;;9.50;99.90;;;;;;5051663;28;20468;-77
2021/12/01 05:37:09;;;;;;;5.50;4.40;;;9.50;99.90;;;;;;5052369;28;20036;-79
2021/12/01 05:39:39;;;;;;;6.07;4.43;;;9.50;99.90;;;;;;5052127;28;20033;-79
2021/12/01 05:42:06;;;;;;;5.35;3.70;;;9.50;99.90;;;;;;5051677;28;20017;-78
2021/12/01 05:44:32;;;;;;;3.60;3.30;;;9.50;99.90;;;;;;5051965;28;20033;-79
2021/12/01 05:46:58;;;;;;;8.63;4.93;;;9.40;99.90;;;;;;5052361;28;20106;-79
2021/12/01 05:49:24;;;;;;;4.25;3.85;;;9.40;99.90;;;;;;5051480;28;20460;-78
2021/12/01 05:51:53;;;;;;;4.15;3.80;;;9.50;99.90;;;;;;5052166;28;20358;-79
2021/12/01 05:54:19;;;;;;;5.15;3.55;;;9.40;99.90;;;;;;5051978;28;20028;-78
2021/12/01 05:56:45;;;;;;;4.45;4.03;;;9.50;99.90;;;;;;5054680;28;20021;-77
2021/12/01 05:59:10;;;;;;;5.35;4.88;;;9.40;99.90;;;;;;5052862;28;20103;-77
2021/12/01 06:01:36;;;;;;;5.85;4.68;;;9.50;99.90;;;;;;5051685;28;20040;-78
2021/12/01 06:04:02;;;;;;;5.15;4.65;;;9.40;99.90;;;;;;5052003;28;20025;-79
2021/12/01 06:06:28;;;;;;;7.00;5.03;;;9.40;99.90;;;;;;5051975;28;20029;-79
2021/12/01 06:08:55;;;;;;;5.82;5.00;;;9.40;99.90;;;;;;5054256;28;20049;-77
2021/12/01 06:11:21;;;;;;;5.43;4.32;;;9.40;99.90;;;;;;5052837;28;20029;-78
2021/12/01 06:13:50;;;;;;;7.95;5.18;;;9.50;99.90;;;;;;5052638;28;20431;-77
2021/12/01 06:16:19;;;;;;;4.95;3.97;;;9.40;99.90;;;;;;5050917;28;20103;-78
2021/12/01 06:18:45;;;;;;;6.15;3.60;;;9.40;99.90;;;;;;5051989;28;20420;-79
2021/12/01 06:21:10;;;;;;;5.18;4.45;;;9.50;99.90;;;;;;5051545;28;20033;-78
2021/12/01 06:23:36;;;;;;;3.80;3.50;;;9.50;99.90;;;;;;5051059;28;20025;-78
2021/12/01 06:26:01;;;;;;;4.47;3.92;;;9.50;99.90;;;;;;5051459;28;20104;-78
2021/12/01 06:28:28;;;;;;;5.35;4.30;;;9.50;99.90;;;;;;5053822;28;20362;-78
2021/12/01 06:30:54;;;;;;;7.38;3.30;;;9.50;99.90;;;;;;5051162;28;20104;-77
2021/12/01 06:33:19;;;;;;;7.03;4.28;;;9.50;99.90;;;;;;5051404;28;20047;-77
2021/12/01 06:35:48;;;;;;;5.05;3.20;;;9.50;99.90;;;;;;5051542;28;20046;-78
2021/12/01 06:38:15;;;;;;;5.22;3.92;;;9.50;99.90;;;;;;5047594;28;20222;-79
2021/12/01 06:40:41;;;;;;;5.38;3.25;;;9.50;99.90;;;;;;5047491;28;20049;-78
2021/12/01 06:43:10;;;;;;;6.30;3.20;;;9.50;99.90;;;;;;5050595;28;20033;-77
2021/12/01 06:45:35;;;;;;;2.63;2.42;;;9.50;99.90;;;;;;5049755;28;20104;-78
2021/12/01 06:48:01;;;;;;;2.85;2.20;;;9.60;99.90;;;;;;5049903;28;20125;-78
2021/12/01 06:50:26;;;;;;;3.25;2.67;;;9.50;99.90;;;;;;5049749;28;20488;-77
2021/12/01 06:52:52;;;;;;;4.07;2.20;;;9.50;99.90;;;;;;5051650;28;20111;-78
2021/12/01 06:55:20;;;;;;;2.40;2.10;;;9.50;99.90;;;;;;5051148;28;20535;-78
2021/12/01 06:57:46;;;;;;;1.55;1.45;;;9.50;99.90;;;;;;5041866;28;20152;-77
2021/12/01 07:00:13;;;;;;;2.53;1.70;;;9.50;99.90;;;;;;5032823;28;20116;-78
2021/12/01 07:02:38;;;;;;;2.20;1.90;;;9.60;99.90;;;;;;5034799;28;20022;-76
2021/12/01 07:05:05;;;;;;;2.20;1.90;;;9.50;99.90;;;;;;5031729;28;20030;-77
2021/12/01 07:07:31;;;;;;;1.48;1.38;;;9.50;99.90;;;;;;5033629;28;20021;-77
2021/12/01 07:09:57;;;;;;;2.10;1.45;;;9.50;99.90;;;;;;5031493;28;20037;-77
2021/12/01 07:12:23;;;;;;;1.85;1.70;;;9.50;99.90;;;;;;5030692;28;20025;-76
2021/12/01 07:14:49;;;;;;;2.20;2.05;;;9.50;99.90;;;;;;5033350;28;20033;-76
2021/12/01 07:17:19;;;;;;;2.35;2.10;;;9.50;99.90;;;;;;5035787;28;20040;-78
2021/12/01 07:19:44;;;;;;;3.42;2.30;;;9.50;99.90;;;;;;5033511;28;20116;-77
2021/12/01 07:22:10;;;;;;;3.08;2.70;;;9.60;99.90;;;;;;5046807;28;20564;-77
2021/12/01 07:24:36;;;;;;;4.75;2.75;;;9.60;99.90;;;;;;5049469;28;20021;-78
2021/12/01 07:27:02;;;;;;;2.30;2.10;;;9.70;99.90;;;;;;5049282;28;20039;-76
2021/12/01 07:29:27;;;;;;;2.42;2.22;;;9.70;99.90;;;;;;5049960;28;20025;-76
2021/12/01 07:31:53;;;;;;;2.45;2.17;;;9.70;99.90;;;;;;5050402;28;20465;-77
2021/12/01 07:34:19;;;;;;;3.90;2.67;;;9.80;99.90;;;;;;5048796;28;20036;-77
2021/12/01 07:36:45;;;;;;;4.03;2.95;;;9.80;99.90;;;;;;5049699;28;20017;-76
2021/12/01 07:39:10;;;;;;;3.97;2.38;;;9.80;99.90;;;;;;5047762;28;20033;-76
2021/12/01 07:41:36;;;;;;;3.67;3.38;;;9.80;99.90;;;;;;5049700;28;20156;-76
2021/12/01 07:44:01;;;;;;;5.43;2.97;;;9.80;99.90;;;;;;5055163;28;20028;-79
2021/12/01 07:46:27;;;;;;;4.07;2.72;;;9.80;99.90;;;;;;5050627;28;20503;-81
2021/12/01 07:48:52;;;;;;;3.92;3.35;;;9.80;99.90;;;;;;5049257;28;20017;-82
2021/12/01 07:51:18;;;;;;;5.35;3.20;;;9.80;99.90;;;;;;5049794;28;20033;-81
2021/12/01 07:53:44;;;;;;;5.88;3.08;;;9.80;99.90;;;;;;5053790;28;20017;-82
2021/12/01 07:56:09;;;;;;;3.45;3.15;;;9.80;99.90;;;;;;5054316;28;20465;-82
2021/12/01 07:58:35;;;;;;;3.72;3.38;;;9.90;99.90;;;;;;5054301;28;20024;-81
2021/12/01 08:01:01;;;;;;;6.18;3.05;;;9.90;99.90;;;;;;5054133;28;20112;-83
2021/12/01 08:03:26;;;;;;;4.28;2.90;;;9.90;99.90;;;;;;5051573;28;20067;-83
2021/12/01 08:05:52;;;;;;;4.78;3.08;;;9.90;99.90;;;;;;5052920;28;20044;-82
2021/12/01 08:08:18;;;;;;;6.72;2.38;;;9.90;99.90;;;;;;5051503;28;20721;-85
2021/12/01 08:10:45;;;;;;;4.93;1.63;;;9.90;99.90;;;;;;5051886;28;20531;-84
2021/12/01 08:13:11;;;;;;;7.82;2.58;;;9.90;99.90;;;;;;5054413;28;20071;-84
2021/12/01 08:15:36;;;;;;;7.90;2.00;;;9.90;99.90;;;;;;5056015;28;20021;-83
2021/12/01 08:18:02;;;;;;;6.28;1.70;;;9.90;99.90;;;;;;5057602;28;20025;-85
2021/12/01 08:20:28;;;;;;;4.55;1.60;;;9.80;99.90;;;;;;5063476;28;20029;-88
2021/12/01 08:22:54;;;;;;;6.65;1.67;;;9.90;99.90;;;;;;5065511;28;20024;-85
2021/12/01 08:25:21;;;;;;;14.25;3.30;;;9.90;99.90;;;;;;5057286;28;20044;-85
2021/12/01 08:27:46;;;;;;;10.02;2.78;;;9.90;99.90;;;;;;5056383;28;20025;-85
2021/12/01 08:30:12;;;;;;;7.30;2.00;;;9.90;99.90;;;;;;5056459;28;20122;-83
2021/12/01 08:32:38;;;;;;;5.18;1.42;;;9.80;99.90;;;;;;5057523;28;20021;-87
2021/12/01 08:35:04;;;;;;;5.93;1.52;;;9.70;99.90;;;;;;5067873;28;20032;-81
2021/12/01 08:37:29;;;;;;;11.05;1.25;;;9.60;99.90;;;;;;5051479;28;20033;-87
2021/12/01 08:39:55;;;;;;;4.25;1.20;;;9.60;99.90;;;;;;5051167;28;20040;-87
2021/12/01 08:42:23;;;;;;;15.15;3.10;;;9.60;99.90;;;;;;5053081;28;20052;-87
2021/12/01 08:44:50;;;;;;;6.90;1.45;;;9.50;99.90;;;;;;5055458;28;20025;-84
2021/12/01 08:47:20;;;;;;;12.25;1.35;;;9.50;99.90;;;;;;5055619;28;20454;-84
2021/12/01 08:49:46;;;;;;;9.95;1.40;;;9.50;99.90;;;;;;5059285;28;20025;-84
2021/12/01 08:52:13;;;;;;;9.40;1.00;;;9.50;99.90;;;;;;5054960;28;20126;-82
2021/12/01 08:54:43;;;;;;;5.95;1.45;;;9.50;99.90;;;;;;5054742;28;20024;-82
2021/12/01 08:57:08;;;;;;;4.13;1.35;;;9.50;99.90;;;;;;5053706;28;20393;-78
2021/12/01 08:59:35;;;;;;;6.55;1.25;;;9.50;99.90;;;;;;5039223;28;20041;-83
2021/12/01 09:02:01;;;;;;;10.00;1.48;;;9.50;99.90;;;;;;5040577;28;20064;-79
2021/12/01 09:04:27;;;;;;;12.07;3.22;;;9.60;99.90;;;;;;5051515;28;20063;-81
2021/12/01 09:06:53;;;;;;;8.00;1.75;;;9.60;99.90;;;;;;5050372;28;20028;-77
2021/12/01 09:09:19;;;;;;;11.95;2.53;;;9.60;99.90;;;;;;5052707;28;20106;-80
2021/12/01 09:11:46;;;;;;;5.00;1.27;;;9.60;99.90;;;;;;5054538;28;20108;-87
2021/12/01 09:14:12;;;;;;;5.05;1.05;;;9.50;99.90;;;;;;5054320;28;20079;-84
2021/12/01 09:16:39;;;;;;;9.30;1.15;;;9.50;99.90;;;;;;5053547;28;20497;-84
2021/12/01 09:19:05;;;;;;;11.65;1.02;;;9.50;99.90;;;;;;5066697;28;20021;-83
2021/12/01 09:21:30;;;;;;;7.03;0.98;;;9.60;99.90;;;;;;5068011;28;20025;-83
2021/12/01 09:23:56;;;;;;;3.63;1.40;;;9.60;99.90;;;;;;5055258;28;20040;-83
2021/12/01 09:26:22;;;;;;;3.28;0.82;;;9.60;99.90;;;;;;5053014;28;20025;-83
2021/12/01 09:28:47;;;;;;;5.50;1.75;;;9.60;99.90;;;;;;5053097;28;20025;-82
2021/12/01 09:31:13;;;;;;;3.65;1.55;;;9.60;99.90;;;;;;5053311;28;20106;-85
2021/12/01 09:33:38;;;;;;;7.53;1.40;;;9.50;99.90;;;;;;5056626;28;20025;-86
2021/12/01 09:36:04;;;;;;;6.20;0.93;;;9.40;99.90;;;;;;5053224;28;20429;-87
2021/12/01 09:38:30;;;;;;;3.90;1.40;;;9.30;99.90;;;;;;5051783;28;20506;-86
2021/12/01 09:41:00;;;;;;;9.13;1.33;;;9.30;99.90;;;;;;5055096;28;20033;-86
2021/12/01 09:43:27;;;;;;;2.40;0.93;;;9.20;99.90;;;;;;5052040;28;20389;-87
2021/12/01 09:46:04;;;;;;;3.65;0.88;;;9.20;99.90;;;;;;5054777;28;20028;-87
2021/12/01 09:48:31;;;;;;;11.82;1.60;;;9.10;99.90;;;;;;5050447;28;20085;-85
2021/12/01 09:50:57;;;;;;;3.25;0.85;;;9.00;99.90;;;;;;5050265;28;20063;-85
2021/12/01 09:53:23;;;;;;;6.97;1.02;;;8.90;99.90;;;;;;5052179;28;20037;-84
2021/12/01 09:55:48;;;;;;;5.68;1.25;;;8.80;99.90;;;;;;5051950;28;20024;-81
2021/12/01 09:58:20;;;;;;;3.10;0.77;;;8.80;99.90;;;;;;5051472;28;20025;-85
2021/12/01 10:00:49;;;;;;;4.07;0.77;;;8.80;99.90;;;;;;5051942;28;20048;-85
2021/12/01 10:03:15;;;;;;;6.18;1.60;;;8.80;99.90;;;;;;5052803;28;20044;-84
2021/12/01 10:05:50;;;;;;;9.77;1.15;;;8.80;99.90;;;;;;5062167;28;20032;-84
2021/12/01 10:08:23;;;;;;;8.55;2.08;;;8.80;99.90;;;;;;5054186;28;20111;-84
2021/12/01 10:10:50;;;;;;;8.93;1.70;;;8.90;99.90;;;;;;5051909;28;20071;-83
2021/12/01 10:13:29;;;;;;;6.85;1.20;;;9.00;99.90;;;;;;5052272;28;20027;-84
2021/12/01 10:15:58;;;;;;;5.45;1.35;;;9.00;99.90;;;;;;5048063;28;20108;-82
2021/12/01 10:18:25;;;;;;;11.48;1.08;;;9.00;99.90;;;;;;5052286;28;20067;-84
2021/12/01 10:21:13;;;;;;;5.72;0.90;;;9.00;99.90;;;;;;5048266;28;20064;-83
2021/12/01 10:23:47;;;;;;;7.50;0.93;;;9.10;99.90;;;;;;5051539;28;20017;-83
2021/12/01 10:26:25;;;;;;;6.97;1.35;;;9.10;99.90;;;;;;5049116;28;20473;-83
2021/12/01 10:28:58;;;;;;;4.85;1.13;;;9.00;99.90;;;;;;5051561;28;20029;-82
2021/12/01 10:31:42;;;;;;;12.60;1.75;;;9.00;99.90;;;;;;5052702;28;20017;-83
2021/12/01 10:34:30;;;;;;;8.10;1.08;;;8.90;99.90;;;;;;5051828;28;20071;-83
2021/12/01 10:37:07;;;;;;;5.78;1.42;;;8.90;99.90;;;;;;5050761;28;20376;-83
2021/12/01 10:39:33;;;;;;;7.43;2.08;;;9.00;99.90;;;;;;5051185;28;20112;-84
2021/12/01 10:42:04;;;;;;;5.65;1.85;;;9.00;99.90;;;;;;5051746;28;20033;-83
2021/12/01 10:44:30;;;;;;;12.48;4.00;;;9.10;99.90;;;;;;5050996;28;20340;-82
2021/12/01 10:46:56;;;;;;;2.92;0.85;;;9.20;99.90;;;;;;5052098;28;20025;-83
2021/12/01 10:49:34;;;;;;;11.90;1.75;;;9.20;99.90;;;;;;5052586;28;20496;-82
2021/12/01 10:52:00;;;;;;;10.70;1.95;;;9.20;99.90;;;;;;5051450;28;20119;-83
2021/12/01 10:54:26;;;;;;;15.02;2.40;;;9.20;99.90;;;;;;5051503;28;20021;-83
2021/12/01 10:57:21;;;;;;;10.15;1.10;;;9.30;99.90;;;;;;5052160;28;20051;-82
2021/12/01 10:59:49;;;;;;;10.95;2.08;;;9.30;99.90;;;;;;5050691;28;20033;-82
2021/12/01 11:02:16;;;;;;;13.70;1.90;;;9.40;99.90;;;;;;5052943;28;20071;-83
2021/12/01 11:04:47;;;;;;;15.10;1.40;;;9.50;99.90;;;;;;5053090;28;20037;-83
2021/12/01 11:07:27;;;;;;;9.27;1.83;;;9.50;99.90;;;;;;5067044;28;20380;-83
2021/12/01 11:10:09;;;;;;;17.10;2.53;;;9.50;99.90;;;;;;5070943;28;20045;-83
2021/12/01 11:12:35;;;;;;;6.32;1.20;;;9.50;99.90;;;;;;5056560;28;20420;-83
2021/12/01 11:15:16;;;;;;;3.42;0.85;;;9.50;99.90;;;;;;5055815;28;20108;-83
2021/12/01 11:17:42;;;;;;;8.30;1.52;;;9.50;99.90;;;;;;5052019;28;20025;-82
2021/12/01 11:20:09;;;;;;;5.05;1.52;;;9.60;99.90;;;;;;5052611;28;20033;-82
2021/12/01 11:22:36;;;;;;;7.72;1.27;;;9.60;99.90;;;;;;5052903;28;20040;-80
2021/12/01 11:25:22;;;;;;;5.00;0.73;;;9.70;99.90;;;;;;5053521;28;20025;-82
2021/12/01 11:27:48;;;;;;;12.43;1.45;;;9.70;99.90;;;;;;5059316;28;20017;-82
2021/12/01 11:30:15;;;;;;;36.42;2.90;;;9.70;99.90;;;;;;5059059;28;20088;-81
2021/12/01 11:32:41;;;;;;;1.85;0.75;;;9.70;99.90;;;;;;5057175;28;20090;-83
2021/12/01 11:35:07;;;;;;;4.03;0.88;;;9.80;99.90;;;;;;5058023;28;20017;-81
2021/12/01 11:37:32;;;;;;;4.53;1.17;;;9.70;99.90;;;;;;5057239;28;20032;-80
2021/12/01 11:39:58;;;;;;;6.85;1.00;;;9.70;99.90;;;;;;5057284;28;20037;-82
2021/12/01 11:42:24;;;;;;;7.53;0.75;;;9.60;99.90;;;;;;5057843;28;20138;-81
2021/12/01 11:44:54;;;;;;;4.97;1.33;;;9.60;99.90;;;;;;5056313;28;20060;-81
2021/12/01 11:47:23;;;;;;;6.07;1.08;;;9.60;99.90;;;;;;5055152;28;20065;-81
2021/12/01 11:49:51;;;;;;;4.78;1.33;;;9.60;99.90;;;;;;5054849;28;20103;-81
2021/12/01 11:52:21;;;;;;;6.70;0.95;;;9.60;99.90;;;;;;5055750;28;20044;-80
2021/12/01 11:54:47;;;;;;;4.80;0.95;;;9.50;99.90;;;;;;5054876;28;20025;-81
2021/12/01 11:57:13;;;;;;;10.48;1.42;;;9.50;99.90;;;;;;5053038;28;20116;-80
2021/12/01 11:59:44;;;;;;;3.33;0.93;;;9.60;99.90;;;;;;5054753;28;20124;-81
2021/12/01 12:02:15;;;;;;;3.90;1.25;;;9.60;99.90;;;;;;5053537;28;20080;-82
2021/12/01 12:05:09;;;;;;;7.15;0.73;;;9.60;99.90;;;;;;5053930;28;20455;-82
2021/12/01 12:07:36;;;;;;;4.57;0.95;;;9.60;99.90;;;;;;5049386;28;20631;-80
2021/12/01 12:10:19;;;;;;;5.72;0.90;;;9.50;99.90;;;;;;5053995;28;20116;-81
2021/12/01 12:12:58;;;;;;;5.05;1.05;;;9.50;99.90;;;;;;5053879;28;20021;-80
2021/12/01 12:15:52;;;;;;;4.88;1.45;;;9.40;99.90;;;;;;5053075;28;20017;-80
2021/12/01 12:18:33;;;;;;;12.90;1.70;;;9.50;99.90;;;;;;5054233;28;20032;-81
2021/12/01 12:21:17;;;;;;;5.53;1.10;;;9.50;99.90;;;;;;5053585;28;20029;-80
2021/12/01 12:23:45;;;;;;;6.97;1.35;;;9.50;99.90;;;;;;5054173;28;20025;-79
2021/12/01 12:26:11;;;;;;;7.47;0.90;;;9.50;99.90;;;;;;5050936;28;20029;-80
2021/12/01 12:28:39;;;;;;;7.82;0.88;;;9.50;99.90;;;;;;5051830;28;20025;-81
2021/12/01 12:31:06;;;;;;;6.38;1.08;;;9.60;99.90;;;;;;5052627;28;20052;-81
2021/12/01 12:33:34;;;;;;;3.03;1.33;;;9.60;99.90;;;;;;5052270;28;20028;-80
2021/12/01 12:36:09;;;;;;;6.47;1.05;;;9.60;99.90;;;;;;5051761;28;20040;-80
2021/12/01 12:38:36;;;;;;;10.55;2.33;;;9.60;99.90;;;;;;5048618;28;20049;-79
2021/12/01 12:41:11;;;;;;;4.05;1.27;;;9.60;99.90;;;;;;5056705;28;20032;-86
2021/12/01 12:43:44;;;;;;;11.32;1.70;;;9.70;99.90;;;;;;5057326;28;20409;-72
2021/12/01 12:46:19;;;;;;;3.15;1.13;;;9.70;99.90;;;;;;5050412;28;20017;-86
2021/12/01 12:48:50;;;;;;;15.00;2.33;;;9.70;99.90;;;;;;5055941;28;20036;-84
2021/12/01 12:51:32;;;;;;;7.53;2.25;;;9.70;99.90;;;;;;5058778;28;20029;-85
2021/12/01 12:54:08;;;;;;;6.45;1.48;;;9.70;99.90;;;;;;5055471;28;20036;-85
2021/12/01 12:56:49;;;;;;;10.43;2.20;;;9.70;99.90;;;;;;5049505;28;20036;-85
2021/12/01 12:59:34;;;;;;;4.53;1.20;;;9.70;99.90;;;;;;5051088;28;20024;-85
2021/12/01 13:02:09;;;;;;;13.30;2.30;;;9.70;99.90;;;;;;5051357;28;20028;-84